Time;durP1;ratioP1;P1;durP2;ratioP2;P2;SDS_P1;SDS_P2;PMS_P1;PMS_P2;Temp;Humidity;BMP_temperature;BMP_pressure;BME280_temperature;BME280_humidity;BME280_pressure;Samples;Min_cycle;Max_cycle;Signal;HPM_P1;HPM_P2
2022/11/05 00:10:15;;;;;;;;;;;;;;;17.40;nan;100937.84;5047715;28;19927;-35
2022/11/05 00:18:08;;;;;;;;;;;;;;;17.32;nan;100937.69;5043931;28;19927;-35
2022/11/05 00:20:33;;;;;;;;;;;;;;;17.32;nan;100946.63;5046727;28;19917;-35
2022/11/05 00:25:51;;;;;;;;;;;;;;;17.34;nan;100951.75;5044728;28;19924;-36
2022/11/05 00:28:17;;;;;;;;;;;;;;;17.35;nan;100951.47;5045812;28;19982;-35
2022/11/05 00:30:42;;;;;;;;;;;;;;;17.35;nan;100951.47;5043125;28;19916;-35
2022/11/05 00:33:07;;;;;;;;;;;;;;;17.34;nan;100951.75;5042879;28;19918;-35
2022/11/05 00:35:33;;;;;;;;;;;;;;;17.31;nan;100952.34;5042492;28;20268;-36
2022/11/05 00:37:58;;;;;;;;;;;;;;;17.27;nan;100954.00;5038972;28;19929;-35
2022/11/05 00:40:23;;;;;;;;;;;;;;;17.24;nan;100958.09;5048498;28;19941;-35
2022/11/05 00:45:33;;;;;;;;;;;;;;;17.22;nan;100958.34;5042581;28;20456;-35
2022/11/05 00:50:59;;;;;;;;;;;;;;;17.22;nan;100963.78;4975057;28;19929;-35
2022/11/05 00:53:24;;;;;;;;;;;;;;;17.22;nan;100971.91;5028976;28;19917;-35
2022/11/05 00:55:49;;;;;;;;;;;;;;;17.24;nan;100974.34;5044280;28;19924;-35
2022/11/05 00:58:19;;;;;;;;;;;;;;;17.26;nan;100979.47;5048430;28;20603;-35
2022/11/05 01:00:48;;;;;;;;;;;;;;;17.26;nan;100985.69;5046167;28;19917;-35
2022/11/05 01:03:14;;;;;;;;;;;;;;;17.27;nan;100981.09;5035941;28;20477;-35
2022/11/05 01:05:44;;;;;;;;;;;;;;;17.26;nan;100983.00;5044663;28;19925;-36
2022/11/05 01:08:10;;;;;;;;;;;;;;;17.30;nan;100985.94;5045613;28;19917;-35
2022/11/05 01:10:40;;;;;;;;;;;;;;;17.30;nan;100992.16;5041337;28;19972;-35
2022/11/05 01:13:05;;;;;;;;;;;;;;;17.31;nan;100988.34;5041078;28;19917;-35
2022/11/05 01:15:30;;;;;;;;;;;;;;;17.30;nan;100991.34;5043931;28;20469;-34
2022/11/05 01:17:56;;;;;;;;;;;;;;;17.30;nan;100991.34;5038446;28;19931;-35
2022/11/05 01:20:21;;;;;;;;;;;;;;;17.31;nan;100992.94;5046764;28;19917;-34
2022/11/05 01:22:46;;;;;;;;;;;;;;;17.30;nan;100999.47;5044934;28;19924;-34
2022/11/05 01:25:12;;;;;;;;;;;;;;;17.30;nan;100997.56;5042744;28;19917;-34
2022/11/05 01:27:37;;;;;;;;;;;;;;;17.31;nan;101003.78;5046483;28;19917;-34
2022/11/05 01:30:04;;;;;;;;;;;;;;;17.30;nan;101002.16;5043282;28;19920;-34
2022/11/05 01:32:29;;;;;;;;;;;;;;;17.32;nan;101003.50;5044626;28;20302;-34
2022/11/05 01:34:54;;;;;;;;;;;;;;;17.34;nan;101009.44;5045715;28;19921;-34
2022/11/05 01:37:20;;;;;;;;;;;;;;;17.36;nan;101012.66;5043054;28;19928;-34
2022/11/05 01:39:45;;;;;;;;;;;;;;;17.36;nan;101009.13;5040980;28;19920;-34
2022/11/05 01:42:17;;;;;;;;;;;;;;;17.37;nan;101013.47;5045557;28;19917;-34
2022/11/05 01:44:57;;;;;;;;;;;;;;;17.37;nan;101003.44;5039231;28;20374;-34
2022/11/05 01:47:32;;;;;;;;;;;;;;;17.37;nan;101013.47;5040231;28;20508;-33
2022/11/05 01:49:59;;;;;;;;;;;;;;;17.35;nan;101016.47;5042484;28;20514;-34
2022/11/05 01:52:25;;;;;;;;;;;;;;;17.34;nan;101008.63;5043188;28;19955;-34
2022/11/05 01:54:51;;;;;;;;;;;;;;;17.33;nan;101013.22;5040457;28;19913;-34
2022/11/05 01:57:17;;;;;;;;;;;;;;;17.33;nan;101017.84;5038090;28;19956;-34
2022/11/05 01:59:47;;;;;;;;;;;;;;;17.33;nan;101024.06;5042229;28;20015;-34
2022/11/05 02:02:13;;;;;;;;;;;;;;;17.31;nan;101022.75;5042569;28;20413;-34
2022/11/05 02:04:41;;;;;;;;;;;;;;;17.32;nan;101025.16;5044185;28;19917;-34
2022/11/05 02:07:08;;;;;;;;;;;;;;;17.33;nan;101026.78;5044936;28;19925;-34
2022/11/05 02:09:37;;;;;;;;;;;;;;;17.35;nan;101030.00;5045034;28;19919;-34
2022/11/05 02:12:03;;;;;;;;;;;;;;;17.33;nan;101029.47;5044552;28;20007;-34
2022/11/05 02:14:28;;;;;;;;;;;;;;;17.32;nan;101033.28;5042026;28;20011;-34
2022/11/05 02:17:06;;;;;;;;;;;;;;;17.34;nan;101033.00;5043773;28;19963;-33
2022/11/05 02:19:31;;;;;;;;;;;;;;;17.33;nan;101034.09;5040398;28;19917;-34
2022/11/05 02:21:56;;;;;;;;;;;;;;;17.31;nan;101036.28;5045050;28;20370;-34
2022/11/05 02:24:50;;;;;;;;;;;;;;;17.30;nan;101031.97;5045832;28;19917;-34
2022/11/05 02:27:25;;;;;;;;;;;;;;;17.27;nan;101041.47;5043831;28;19917;-34
2022/11/05 02:30:06;;;;;;;;;;;;;;;17.26;nan;101039.03;5044622;28;20298;-34
2022/11/05 02:32:31;;;;;;;;;;;;;;;17.24;nan;101043.94;5045440;28;19917;-34
2022/11/05 02:35:14;;;;;;;;;;;;;;;17.25;nan;101042.84;5043215;28;19917;-34
2022/11/05 02:37:44;;;;;;;;;;;;;;;17.27;nan;101048.78;5041256;28;20504;-33
2022/11/05 02:40:26;;;;;;;;;;;;;;;17.29;nan;101052.00;5045090;28;20401;-34
2022/11/05 02:43:02;;;;;;;;;;;;;;;17.26;nan;101050.69;5043606;28;19916;-34
2022/11/05 02:45:39;;;;;;;;;;;;;;;17.27;nan;101056.91;5045041;28;19921;-34
2022/11/05 02:48:25;;;;;;;;;;;;;;;17.29;nan;101054.72;5042830;28;19916;-34
2022/11/05 02:50:57;;;;;;;;;;;;;;;17.25;nan;101062.63;5044830;28;20144;-34
2022/11/05 02:53:44;;;;;;;;;;;;;;;17.23;nan;101067.47;5044472;28;19916;-34
2022/11/05 02:56:15;;;;;;;;;;;;;;;17.21;nan;101070.47;5038888;28;19917;-34
2022/11/05 02:58:41;;;;;;;;;;;;;;;17.21;nan;101070.47;5037718;28;19925;-34
2022/11/05 03:01:08;;;;;;;;;;;;;;;17.23;nan;101072.88;5043406;28;19931;-34
2022/11/05 03:03:41;;;;;;;;;;;;;;;17.19;nan;101078.06;5044597;28;19927;-34
2022/11/05 03:06:22;;;;;;;;;;;;;;;17.18;nan;101081.06;5045573;28;20382;-34
2022/11/05 03:08:48;;;;;;;;;;;;;;;17.17;nan;101085.69;5038920;28;19944;-34
2022/11/05 03:11:16;;;;;;;;;;;;;;;17.17;nan;101091.09;5042525;28;19971;-34
2022/11/05 03:13:41;;;;;;;;;;;;;;;17.18;nan;101094.59;5045324;28;19944;-34
2022/11/05 03:16:17;;;;;;;;;;;;;;;17.16;nan;101094.88;5046858;28;20378;-34
2022/11/05 03:18:50;;;;;;;;;;;;;;;17.15;nan;101098.69;5043634;28;19920;-34
2022/11/05 03:21:19;;;;;;;;;;;;;;;17.14;nan;101107.91;5044085;28;19923;-34
2022/11/05 03:23:48;;;;;;;;;;;;;;;17.13;nan;101113.59;5049102;28;20287;-34
2022/11/05 03:26:16;;;;;;;;;;;;;;;17.11;nan;101105.78;5042981;28;19917;-34
2022/11/05 03:28:44;;;;;;;;;;;;;;;17.07;nan;101112.84;5047097;28;19927;-34
2022/11/05 03:31:10;;;;;;;;;;;;;;;17.02;nan;101115.56;5043681;28;19967;-34
2022/11/05 03:33:37;;;;;;;;;;;;;;;16.98;nan;101119.94;5060383;28;19939;-34
2022/11/05 03:36:06;;;;;;;;;;;;;;;16.98;nan;101114.53;5047899;28;20083;-34
2022/11/05 03:38:33;;;;;;;;;;;;;;;16.98;nan;101119.13;5049050;28;19928;-34
2022/11/05 03:41:02;;;;;;;;;;;;;;;16.98;nan;101129.97;5046385;28;20443;-34
2022/11/05 03:43:31;;;;;;;;;;;;;;;16.98;nan;101130.78;5049559;28;20068;-34
2022/11/05 03:46:00;;;;;;;;;;;;;;;16.97;nan;101129.16;5048164;28;19920;-34
2022/11/05 03:48:27;;;;;;;;;;;;;;;16.99;nan;101134.28;5048533;28;19925;-34
2022/11/05 03:51:07;;;;;;;;;;;;;;;16.98;nan;101138.88;5047144;28;19924;-34
2022/11/05 03:53:36;;;;;;;;;;;;;;;16.97;nan;101142.69;5046688;28;19917;-34
2022/11/05 03:56:13;;;;;;;;;;;;;;;16.98;nan;101141.59;5047095;28;19924;-34
2022/11/05 03:58:42;;;;;;;;;;;;;;;16.95;nan;101144.06;5048302;28;19924;-34
2022/11/05 04:01:08;;;;;;;;;;;;;;;16.91;nan;101147.34;5047856;28;20572;-34
2022/11/05 04:03:35;;;;;;;;;;;;;;;16.91;nan;101152.75;5046786;28;19960;-34
2022/11/05 04:14:13;;;;;;;;;;;;;;;16.88;nan;101163.31;5048285;28;19923;-34
2022/11/05 04:24:50;;;;;;;;;;;;;;;16.77;nan;101167.97;5045780;28;19949;-34
2022/11/05 04:27:15;;;;;;;;;;;;;;;16.82;nan;101175.25;5041577;28;20063;-34
2022/11/05 04:32:24;;;;;;;;;;;;;;;16.78;nan;101179.59;5046579;28;20023;-34
2022/11/05 04:34:50;;;;;;;;;;;;;;;16.79;nan;101181.22;5047769;28;19955;-34
2022/11/05 04:37:15;;;;;;;;;;;;;;;16.76;nan;101176.38;5046941;28;20485;-34
2022/11/05 04:39:40;;;;;;;;;;;;;;;16.74;nan;101173.16;5044547;28;19975;-34
2022/11/05 04:42:06;;;;;;;;;;;;;;;16.75;nan;101180.16;5048631;28;20019;-34
2022/11/05 04:44:31;;;;;;;;;;;;;;;16.71;nan;101176.41;5047583;28;20003;-34
2022/11/05 04:46:57;;;;;;;;;;;;;;;16.70;nan;101185.63;5048431;28;19929;-34
2022/11/05 04:49:22;;;;;;;;;;;;;;;16.70;nan;101182.91;5044810;28;19963;-34
2022/11/05 04:51:47;;;;;;;;;;;;;;;16.69;nan;101179.38;5045276;28;19951;-34
2022/11/05 04:54:13;;;;;;;;;;;;;;;16.67;nan;101189.66;5046385;28;20000;-34
2022/11/05 04:56:38;;;;;;;;;;;;;;;16.64;nan;101192.91;5046269;28;19950;-34
2022/11/05 04:59:03;;;;;;;;;;;;;;;16.63;nan;101194.78;5045305;28;19921;-34
2022/11/05 05:01:29;;;;;;;;;;;;;;;16.63;nan;101194.78;5044955;28;19921;-34
2022/11/05 05:03:54;;;;;;;;;;;;;;;16.63;nan;101197.50;5044334;28;20141;-34
2022/11/05 05:06:20;;;;;;;;;;;;;;;16.59;nan;101206.44;5050363;28;19917;-34
2022/11/05 05:08:46;;;;;;;;;;;;;;;16.57;nan;101205.94;5043649;28;20513;-34
2022/11/05 05:11:12;;;;;;;;;;;;;;;16.55;nan;101198.09;5043936;28;19924;-34
2022/11/05 05:13:38;;;;;;;;;;;;;;;16.52;nan;101212.16;5045017;28;20083;-34
2022/11/05 05:16:05;;;;;;;;;;;;;;;16.51;nan;101217.81;5047501;28;20350;-34
2022/11/05 05:18:30;;;;;;;;;;;;;;;16.50;nan;101222.44;5046838;28;19921;-34
2022/11/05 05:23:40;;;;;;;;;;;;;;;16.44;nan;101231.66;5041723;28;19959;-34
2022/11/05 05:26:06;;;;;;;;;;;;;;;16.44;nan;101222.72;5046933;28;20212;-34
2022/11/05 05:28:33;;;;;;;;;;;;;;;16.42;nan;101222.19;5038943;28;20198;-34
2022/11/05 05:30:59;;;;;;;;;;;;;;;16.40;nan;101225.19;5047154;28;20464;-34
2022/11/05 05:33:25;;;;;;;;;;;;;;;16.38;nan;101229.25;5045995;28;19921;-34
2022/11/05 05:35:50;;;;;;;;;;;;;;;16.34;nan;101234.41;5046406;28;19971;-34
2022/11/05 05:38:16;;;;;;;;;;;;;;;16.29;nan;101235.19;5047585;28;20394;-34
2022/11/05 05:40:41;;;;;;;;;;;;;;;16.25;nan;101242.25;5044886;28;19960;-34
2022/11/05 05:43:07;;;;;;;;;;;;;;;16.22;nan;101253.63;5045876;28;19925;-34
2022/11/05 05:45:33;;;;;;;;;;;;;;;16.19;nan;101250.66;5041964;28;19923;-34
2022/11/05 05:47:59;;;;;;;;;;;;;;;16.17;nan;101250.94;5040728;28;19952;-34
2022/11/05 05:50:24;;;;;;;;;;;;;;;16.15;nan;101252.25;5042433;28;20365;-34
2022/11/05 05:52:50;;;;;;;;;;;;;;;16.14;nan;101253.34;5042330;28;19982;-34
2022/11/05 05:55:15;;;;;;;;;;;;;;;16.10;nan;101253.09;5042029;28;20098;-34
2022/11/05 05:57:41;;;;;;;;;;;;;;;16.05;nan;101258.50;5044718;28;19939;-34
2022/11/05 06:00:06;;;;;;;;;;;;;;;16.05;nan;101260.41;5046728;28;20291;-34
2022/11/05 06:02:32;;;;;;;;;;;;;;;16.04;nan;101261.47;5040709;28;19912;-34
2022/11/05 06:04:57;;;;;;;;;;;;;;;16.01;nan;101276.34;5043965;28;19928;-34
2022/11/05 06:07:22;;;;;;;;;;;;;;;15.94;nan;101268.50;5039525;28;19920;-34
2022/11/05 06:09:47;;;;;;;;;;;;;;;15.90;nan;101277.44;5045998;28;20290;-34
2022/11/05 06:12:13;;;;;;;;;;;;;;;15.88;nan;101285.00;5044312;28;19917;-34
2022/11/05 06:14:39;;;;;;;;;;;;;;;15.80;nan;101294.47;5045950;28;19946;-34
2022/11/05 06:17:05;;;;;;;;;;;;;;;15.78;nan;101299.31;5040755;28;20390;-34
2022/11/05 06:19:31;;;;;;;;;;;;;;;15.77;nan;101299.56;5041500;28;19990;-34
2022/11/05 06:21:56;;;;;;;;;;;;;;;15.76;nan;101306.88;5042327;28;20390;-34
2022/11/05 06:24:21;;;;;;;;;;;;;;;15.77;nan;101313.09;5044961;28;19921;-34
2022/11/05 06:26:47;;;;;;;;;;;;;;;15.74;nan;101309.03;5041537;28;20371;-34
2022/11/05 06:29:12;;;;;;;;;;;;;;;15.73;nan;101315.50;5042108;28;20371;-34
2022/11/05 06:31:37;;;;;;;;;;;;;;;15.71;nan;101320.38;5038340;28;19979;-34
2022/11/05 06:34:02;;;;;;;;;;;;;;;15.69;nan;101327.94;5042486;28;19921;-34
2022/11/05 06:36:28;;;;;;;;;;;;;;;15.68;nan;101331.72;5041005;28;19921;-34
2022/11/05 06:38:53;;;;;;;;;;;;;;;15.69;nan;101333.34;5041413;28;20397;-34
2022/11/05 06:41:18;;;;;;;;;;;;;;;15.67;nan;101328.22;5042658;28;19959;-34
2022/11/05 06:43:44;;;;;;;;;;;;;;;15.65;nan;101335.78;5040413;28;19956;-34
2022/11/05 06:46:09;;;;;;;;;;;;;;;15.63;nan;101339.81;5042054;28;19921;-34
2022/11/05 06:48:35;;;;;;;;;;;;;;;15.61;nan;101344.66;5040348;28;19931;-34
2022/11/05 06:51:00;;;;;;;;;;;;;;;15.59;nan;101352.22;5042120;28;20382;-34
2022/11/05 06:53:26;;;;;;;;;;;;;;;15.57;nan;101359.75;5040070;28;19917;-34
2022/11/05 06:55:51;;;;;;;;;;;;;;;15.54;nan;101357.59;5046246;28;20298;-34
2022/11/05 06:58:16;;;;;;;;;;;;;;;15.53;nan;101364.06;5044306;28;19929;-34
2022/11/05 07:00:42;;;;;;;;;;;;;;;15.54;nan;101371.91;5046315;28;19998;-34
2022/11/05 07:03:08;;;;;;;;;;;;;;;15.55;nan;101372.72;5047784;28;20096;-34
2022/11/05 07:05:35;;;;;;;;;;;;;;;15.55;nan;101375.41;5048001;28;20011;-34
2022/11/05 07:08:01;;;;;;;;;;;;;;;15.56;nan;101382.44;5048026;28;19925;-34
2022/11/05 07:10:26;;;;;;;;;;;;;;;15.57;nan;101392.16;5041265;28;19932;-34
2022/11/05 07:12:51;;;;;;;;;;;;;;;15.59;nan;101395.44;5047239;28;19962;-34
2022/11/05 07:15:17;;;;;;;;;;;;;;;15.60;nan;101392.47;5047461;28;19923;-34
2022/11/05 07:17:42;;;;;;;;;;;;;;;15.65;nan;101399.78;5048856;28;20011;-34
2022/11/05 07:20:08;;;;;;;;;;;;;;;15.66;nan;101393.31;5044874;28;19924;-34
2022/11/05 07:22:34;;;;;;;;;;;;;;;15.67;nan;101395.75;5046761;28;19929;-34
2022/11/05 07:24:59;;;;;;;;;;;;;;;15.69;nan;101395.47;5047133;28;20376;-34
2022/11/05 07:27:25;;;;;;;;;;;;;;;15.70;nan;101399.81;5044718;28;19917;-34
2022/11/05 07:29:50;;;;;;;;;;;;;;;15.74;nan;101406.28;5044232;28;19917;-34
2022/11/05 07:32:15;;;;;;;;;;;;;;;15.77;nan;101400.34;5042840;28;20311;-34
2022/11/05 07:34:41;;;;;;;;;;;;;;;15.78;nan;101404.66;5040571;28;20646;-34
2022/11/05 07:37:06;;;;;;;;;;;;;;;15.83;nan;101396.59;5043496;28;20655;-34
2022/11/05 07:39:31;;;;;;;;;;;;;;;15.88;nan;101402.00;5044729;28;19916;-34
2022/11/05 07:41:56;;;;;;;;;;;;;;;15.94;nan;101414.44;5043729;28;20298;-34
2022/11/05 07:44:22;;;;;;;;;;;;;;;15.92;nan;101402.28;5037276;28;20080;-34
2022/11/05 07:46:48;;;;;;;;;;;;;;;15.94;nan;101409.03;5047539;28;19923;-34
2022/11/05 07:49:13;;;;;;;;;;;;;;;16.01;nan;101409.59;5043406;28;20350;-34
2022/11/05 07:51:39;;;;;;;;;;;;;;;16.11;nan;101407.97;5041474;28;19975;-34
2022/11/05 07:54:04;;;;;;;;;;;;;;;16.18;nan;101409.34;5045138;28;19924;-34
2022/11/05 07:56:29;;;;;;;;;;;;;;;16.19;nan;101408.28;5041289;28;20035;-34
2022/11/05 07:58:55;;;;;;;;;;;;;;;16.18;nan;101414.75;5042846;28;19928;-34
2022/11/05 08:01:20;;;;;;;;;;;;;;;16.21;nan;101416.09;5042554;28;20378;-34
2022/11/05 08:03:45;;;;;;;;;;;;;;;16.24;nan;101418.28;5046578;28;20468;-34
2022/11/05 08:06:11;;;;;;;;;;;;;;;16.29;nan;101424.47;5041189;28;19960;-34
2022/11/05 08:08:36;;;;;;;;;;;;;;;16.35;nan;101424.50;5044210;28;19927;-34
2022/11/05 08:11:02;;;;;;;;;;;;;;;16.39;nan;101421.00;5044400;28;19920;-34
2022/11/05 08:13:28;;;;;;;;;;;;;;;16.44;nan;101417.47;5040100;28;20459;-34
2022/11/05 08:15:55;;;;;;;;;;;;;;;16.44;nan;101428.28;5043881;28;19916;-34
2022/11/05 08:18:20;;;;;;;;;;;;;;;16.45;nan;101433.41;5043532;28;20034;-34
2022/11/05 08:20:45;;;;;;;;;;;;;;;16.46;nan;101442.34;5043231;28;19968;-34
2022/11/05 08:23:11;;;;;;;;;;;;;;;16.48;nan;101446.41;5043531;28;20347;-34
2022/11/05 08:25:36;;;;;;;;;;;;;;;16.50;nan;101455.06;5043497;28;19921;-34
2022/11/05 08:28:03;;;;;;;;;;;;;;;16.49;nan;101448.03;5045264;28;19917;-35
2022/11/05 08:30:29;;;;;;;;;;;;;;;16.46;nan;101453.16;5043056;28;19920;-34
2022/11/05 08:32:56;;;;;;;;;;;;;;;16.44;nan;101450.72;5038644;28;19916;-34
2022/11/05 08:35:21;;;;;;;;;;;;;;;16.43;nan;101449.09;5040734;28;19932;-34
2022/11/05 08:37:46;;;;;;;;;;;;;;;16.45;nan;101446.94;5042688;28;19925;-34
2022/11/05 08:40:12;;;;;;;;;;;;;;;16.52;nan;101441.28;5038579;28;19917;-34
2022/11/05 08:42:37;;;;;;;;;;;;;;;16.57;nan;101455.63;5040716;28;19936;-34
2022/11/05 08:45:02;;;;;;;;;;;;;;;16.70;nan;101448.06;5043654;28;20410;-34
2022/11/05 08:47:28;;;;;;;;;;;;;;;16.85;nan;101456.16;5041715;28;20436;-34
2022/11/05 08:49:53;;;;;;;;;;;;;;;16.95;nan;101456.16;5038548;28;20004;-34
2022/11/05 08:52:19;;;;;;;;;;;;;;;17.08;nan;101462.91;5040367;28;19980;-34
2022/11/05 08:54:44;;;;;;;;;;;;;;;17.20;nan;101466.91;5044125;28;19920;-34
2022/11/05 08:57:09;;;;;;;;;;;;;;;17.29;nan;101469.06;5046311;28;19921;-34
2022/11/05 08:59:35;;;;;;;;;;;;;;;17.33;nan;101468.25;5044059;28;20015;-34
2022/11/05 09:02:00;;;;;;;;;;;;;;;17.37;nan;101468.50;5044630;28;20048;-34
2022/11/05 09:04:25;;;;;;;;;;;;;;;17.48;nan;101470.09;5038751;28;19925;-34
2022/11/05 09:06:51;;;;;;;;;;;;;;;17.57;nan;101465.72;5039843;28;19916;-34
2022/11/05 09:09:16;;;;;;;;;;;;;;;17.63;nan;101471.94;5042774;28;19931;-34
2022/11/05 09:11:42;;;;;;;;;;;;;;;17.67;nan;101471.09;5041748;28;19999;-34
2022/11/05 09:14:08;;;;;;;;;;;;;;;17.75;nan;101481.38;5040890;28;20413;-34
2022/11/05 09:16:35;;;;;;;;;;;;;;;17.81;nan;101488.41;5040966;28;19924;-34
2022/11/05 09:19:03;;;;;;;;;;;;;;;17.88;nan;101485.41;5040014;28;19921;-34
2022/11/05 09:21:28;;;;;;;;;;;;;;;17.96;nan;101486.72;5043221;28;19953;-34
2022/11/05 09:23:54;;;;;;;;;;;;;;;18.02;nan;101497.25;5044831;28;20374;-34
2022/11/05 09:26:19;;;;;;;;;;;;;;;18.07;nan;101504.53;5041223;28;19940;-34
2022/11/05 09:28:44;;;;;;;;;;;;;;;18.17;nan;101509.94;5043749;28;20024;-34
2022/11/05 09:31:10;;;;;;;;;;;;;;;18.26;nan;101505.50;5046880;28;19923;-34
2022/11/05 09:33:37;;;;;;;;;;;;;;;18.33;nan;101502.50;5038064;28;20039;-34
2022/11/05 09:36:02;;;;;;;;;;;;;;;18.36;nan;101507.38;5044736;28;20563;-34
2022/11/05 09:38:28;;;;;;;;;;;;;;;18.39;nan;101504.91;5044704;28;20242;-34
2022/11/05 09:40:56;;;;;;;;;;;;;;;18.46;nan;101509.19;5041633;28;19951;-34
2022/11/05 09:43:24;;;;;;;;;;;;;;;18.59;nan;101522.13;5040846;28;20186;-35
2022/11/05 09:45:51;;;;;;;;;;;;;;;18.71;nan;101522.59;5041708;28;20019;-34
2022/11/05 09:48:19;;;;;;;;;;;;;;;18.85;nan;101522.75;5043287;28;19924;-34
2022/11/05 09:50:44;;;;;;;;;;;;;;;19.00;nan;101528.84;5044130;28;19928;-35
2022/11/05 09:53:15;;;;;;;;;;;;;;;19.10;nan;101521.72;5043835;28;19921;-35
2022/11/05 09:56:00;;;;;;;;;;;;;;;19.18;nan;101526.53;5043054;28;20412;-35
2022/11/05 09:58:42;;;;;;;;;;;;;;;19.28;nan;101535.41;5042511;28;19985;-35
2022/11/05 10:01:14;;;;;;;;;;;;;;;19.43;nan;101531.72;5041339;28;19925;-35
2022/11/05 10:03:45;;;;;;;;;;;;;;;19.56;nan;101530.22;5043172;28;19921;-35
2022/11/05 10:06:15;;;;;;;;;;;;;;;19.68;nan;101533.34;5042108;28;20020;-34
2022/11/05 10:08:43;;;;;;;;;;;;;;;19.73;nan;101535.19;5042777;28;20329;-35
2022/11/05 10:11:20;;;;;;;;;;;;;;;19.76;nan;101534.66;5040488;28;19928;-35
2022/11/05 10:14:09;;;;;;;;;;;;;;;19.80;nan;101535.66;5043303;28;19920;-35
2022/11/05 10:16:36;;;;;;;;;;;;;;;19.85;nan;101541.84;5026978;28;19924;-35
2022/11/05 10:19:05;;;;;;;;;;;;;;;19.95;nan;101543.66;5041015;28;20102;-35
2022/11/05 10:21:31;;;;;;;;;;;;;;;20.06;nan;101547.84;5041809;28;19932;-35
2022/11/05 10:23:56;;;;;;;;;;;;;;;20.14;nan;101551.84;5039615;28;19947;-35
2022/11/05 10:26:25;;;;;;;;;;;;;;;20.19;nan;101546.31;5043906;28;20404;-35
2022/11/05 10:28:51;;;;;;;;;;;;;;;20.29;nan;101556.22;5046235;28;19921;-35
2022/11/05 10:31:19;;;;;;;;;;;;;;;20.34;nan;101548.03;5044472;28;19999;-35
2022/11/05 10:33:55;;;;;;;;;;;;;;;20.45;nan;101544.06;5043134;28;20011;-35
2022/11/05 10:36:22;;;;;;;;;;;;;;;20.54;nan;101546.94;5047943;28;20437;-33
2022/11/05 10:38:48;;;;;;;;;;;;;;;20.64;nan;101555.75;5041901;28;19929;-33
2022/11/05 10:41:42;;;;;;;;;;;;;;;20.69;nan;101552.16;5045842;28;19921;-33
2022/11/05 10:44:40;;;;;;;;;;;;;;;20.77;nan;101554.19;4999181;28;20311;-33
2022/11/05 10:47:08;;;;;;;;;;;;;;;20.86;nan;101566.03;5016726;28;19917;-35
2022/11/05 10:49:48;;;;;;;;;;;;;;;20.91;nan;101563.22;5045301;28;19991;-35
2022/11/05 10:52:23;;;;;;;;;;;;;;;20.99;nan;101561.72;5049154;28;19921;-35
2022/11/05 10:54:50;;;;;;;;;;;;;;;20.98;nan;101565.56;5045411;28;19920;-35
2022/11/05 10:57:33;;;;;;;;;;;;;;;20.96;nan;101563.13;5048426;28;19964;-35
2022/11/05 11:00:27;;;;;;;;;;;;;;;20.96;nan;101559.59;5043524;28;19927;-35
2022/11/05 11:02:53;;;;;;;;;;;;;;;21.07;nan;101574.69;5044950;28;20144;-35
2022/11/05 11:05:26;;;;;;;;;;;;;;;21.18;nan;101578.03;5047861;28;19921;-35
2022/11/05 11:07:53;;;;;;;;;;;;;;;21.19;nan;101572.31;5047078;28;19921;-35
2022/11/05 11:10:20;;;;;;;;;;;;;;;21.25;nan;101582.03;5045231;28;19932;-35
2022/11/05 11:12:47;;;;;;;;;;;;;;;21.28;nan;101581.41;5044731;28;19931;-33
2022/11/05 11:15:18;;;;;;;;;;;;;;;21.39;nan;101580.13;5047172;28;19923;-33
2022/11/05 11:17:44;;;;;;;;;;;;;;;21.42;nan;101581.44;5046335;28;19925;-33
2022/11/05 11:20:12;;;;;;;;;;;;;;;21.46;nan;101581.66;5046893;28;20002;-33
2022/11/05 11:22:37;;;;;;;;;;;;;;;21.52;nan;101586.69;5048940;28;20464;-33
2022/11/05 11:25:17;;;;;;;;;;;;;;;21.55;nan;101586.13;5048238;28;19917;-33
2022/11/05 11:27:43;;;;;;;;;;;;;;;21.63;nan;101595.50;5051493;28;20795;-34
2022/11/05 11:30:15;;;;;;;;;;;;;;;21.66;nan;101589.44;5046770;28;20012;-34
2022/11/05 11:32:41;;;;;;;;;;;;;;;21.68;nan;101587.22;5048228;28;20487;-33
2022/11/05 11:35:16;;;;;;;;;;;;;;;21.77;nan;101588.16;5048829;28;20038;-34
2022/11/05 11:37:42;;;;;;;;;;;;;;;21.89;nan;101584.91;5050461;28;20020;-33
2022/11/05 11:40:07;;;;;;;;;;;;;;;22.02;nan;101593.09;5046353;28;19925;-34
2022/11/05 11:42:34;;;;;;;;;;;;;;;22.09;nan;101590.00;5041600;28;20286;-33
2022/11/05 11:45:04;;;;;;;;;;;;;;;22.18;nan;101599.06;5045032;28;19921;-34
2022/11/05 11:47:29;;;;;;;;;;;;;;;22.25;nan;101593.97;5042087;28;20379;-33
2022/11/05 11:49:58;;;;;;;;;;;;;;;22.26;nan;101601.09;5043334;28;19920;-34
2022/11/05 11:52:26;;;;;;;;;;;;;;;22.26;nan;101600.25;5044764;28;20306;-33
2022/11/05 11:54:52;;;;;;;;;;;;;;;22.33;nan;101600.66;5045955;28;20000;-34
2022/11/05 11:57:25;;;;;;;;;;;;;;;22.44;nan;101606.69;5042157;28;19925;-34
2022/11/05 11:59:51;;;;;;;;;;;;;;;22.52;nan;101606.78;5042285;28;19921;-33
2022/11/05 12:02:19;;;;;;;;;;;;;;;22.58;nan;101602.00;5045506;28;19982;-34
2022/11/05 12:05:03;;;;;;;;;;;;;;;22.63;nan;101592.91;5039789;28;19925;-34
2022/11/05 12:07:34;;;;;;;;;;;;;;;22.65;nan;101593.41;5042702;28;20197;-33
2022/11/05 12:10:10;;;;;;;;;;;;;;;22.59;nan;101593.50;5043012;28;19917;-34
2022/11/05 12:13:01;;;;;;;;;;;;;;;22.60;nan;101588.84;5042307;28;19924;-33
2022/11/05 12:15:53;;;;;;;;;;;;;;;22.73;nan;101609.03;5020349;28;19921;-34
2022/11/05 12:18:24;;;;;;;;;;;;;;;22.83;nan;101606.13;5040713;28;20196;-34
2022/11/05 12:21:10;;;;;;;;;;;;;;;22.91;nan;101608.09;5041834;28;20415;-34
2022/11/05 12:23:53;;;;;;;;;;;;;;;23.13;nan;101608.06;5022312;28;19920;-34
2022/11/05 12:26:33;;;;;;;;;;;;;;;23.34;nan;101607.56;5039212;28;19921;-34
2022/11/05 12:28:58;;;;;;;;;;;;;;;23.58;nan;101605.31;5041818;28;19921;-34
2022/11/05 12:31:33;;;;;;;;;;;;;;;23.76;nan;101603.47;5043668;28;19920;-34
2022/11/05 12:34:04;;;;;;;;;;;;;;;24.01;nan;101601.91;5037750;28;20341;-34
2022/11/05 12:36:57;;;;;;;;;;;;;;;24.12;nan;101606.00;5038723;28;19927;-34
2022/11/05 12:39:28;;;;;;;;;;;;;;;24.32;nan;101608.16;5041217;28;19924;-34
2022/11/05 12:42:15;;;;;;;;;;;;;;;24.50;nan;101614.44;5041303;28;20447;-34
2022/11/05 12:44:40;;;;;;;;;;;;;;;24.63;nan;101607.22;5037848;28;20072;-34
2022/11/05 12:47:15;;;;;;;;;;;;;;;24.83;nan;101613.97;5036392;28;20270;-34
2022/11/05 12:49:46;;;;;;;;;;;;;;;25.07;nan;101613.50;5041874;28;20294;-34
2022/11/05 12:52:11;;;;;;;;;;;;;;;24.94;nan;101607.03;5035911;28;19971;-34
2022/11/05 12:54:36;;;;;;;;;;;;;;;24.70;nan;101613.81;5042881;28;19952;-34
2022/11/05 12:57:03;;;;;;;;;;;;;;;24.57;nan;101613.97;5037867;28;20306;-34
2022/11/05 12:59:40;;;;;;;;;;;;;;;24.75;nan;101617.50;5039283;28;19920;-34
2022/11/05 13:02:24;;;;;;;;;;;;;;;25.08;nan;101615.09;5040486;28;20359;-34
2022/11/05 13:04:56;;;;;;;;;;;;;;;25.02;nan;101619.16;5041620;28;19927;-34
2022/11/05 13:07:25;;;;;;;;;;;;;;;24.76;nan;101619.94;5041339;28;19921;-34
2022/11/05 13:10:20;;;;;;;;;;;;;;;24.53;nan;101621.22;5040155;28;19951;-34
2022/11/05 13:12:48;;;;;;;;;;;;;;;24.49;nan;101617.50;5028557;28;19925;-34
2022/11/05 13:15:13;;;;;;;;;;;;;;;24.43;nan;101616.88;5040813;28;20036;-34
2022/11/05 13:17:44;;;;;;;;;;;;;;;24.32;nan;101618.28;5042682;28;21171;-34
2022/11/05 13:20:31;;;;;;;;;;;;;;;24.40;nan;101625.69;5033993;28;19924;-34
2022/11/05 13:22:59;;;;;;;;;;;;;;;24.75;nan;101623.78;5069510;22;19975;-34
2022/11/05 13:25:30;;;;;;;;;;;;;;;24.55;nan;101616.22;5058845;28;19928;-33
2022/11/05 13:27:55;;;;;;;;;;;;;;;24.19;nan;101625.47;5058743;28;19920;-34
2022/11/05 13:30:22;;;;;;;;;;;;;;;23.90;nan;101628.78;5056796;28;19978;-33
2022/11/05 13:33:03;;;;;;;;;;;;;;;23.60;nan;101632.34;5039976;28;19927;-34
2022/11/05 13:35:30;;;;;;;;;;;;;;;23.36;nan;101643.63;5037380;28;19921;-33
2022/11/05 13:40:46;;;;;;;;;;;;;;;23.62;nan;101638.31;5036837;28;19943;-33
2022/11/05 13:43:24;;;;;;;;;;;;;;;24.07;nan;101642.53;5034347;28;20401;-33
2022/11/05 13:46:08;;;;;;;;;;;;;;;24.66;nan;101647.66;5035701;28;20432;-34
2022/11/05 13:49:02;;;;;;;;;;;;;;;25.13;nan;101653.31;5037404;28;19924;-34
2022/11/05 13:51:33;;;;;;;;;;;;;;;25.42;nan;101658.91;5029362;28;20270;-35
2022/11/05 13:54:18;;;;;;;;;;;;;;;25.56;nan;101655.97;5030573;28;20035;-34